Time;durP1;ratioP1;P1;durP2;ratioP2;P2;SDS_P1;SDS_P2;PMS_P1;PMS_P2;Temp;Humidity;BMP_temperature;BMP_pressure;BME280_temperature;BME280_humidity;BME280_pressure;Samples;Min_cycle;Max_cycle;Signal;HPM_P1;HPM_P2
2023/08/12 00:00:30;;;;;;;8.60;4.68;;;;;;;;;;5041341;28;20037;-63
2023/08/12 00:02:56;;;;;;;11.00;4.95;;;;;;;;;;5040732;28;20025;-63
2023/08/12 00:05:22;;;;;;;7.50;4.20;;;;;;;;;;5040557;28;20029;-63
2023/08/12 00:07:49;;;;;;;9.90;4.95;;;;;;;;;;5041292;28;20035;-62
2023/08/12 00:10:18;;;;;;;9.10;4.15;;;;;;;;;;5040236;28;20131;-63
2023/08/12 00:12:44;;;;;;;7.65;3.88;;;;;;;;;;5040497;28;20025;-63
2023/08/12 00:15:10;;;;;;;7.72;3.88;;;;;;;;;;5040434;28;20033;-63
2023/08/12 00:17:37;;;;;;;10.43;4.05;;;;;;;;;;5040878;28;20491;-63
2023/08/12 00:20:05;;;;;;;7.53;3.50;;;;;;;;;;5041916;28;20063;-63
2023/08/12 00:22:32;;;;;;;9.98;3.45;;;;;;;;;;5039933;28;20037;-63
2023/08/12 00:24:58;;;;;;;10.00;3.63;;;;;;;;;;5039653;28;20592;-63
2023/08/12 00:27:24;;;;;;;9.80;3.80;;;;;;;;;;5039279;28;20592;-63
2023/08/12 00:29:50;;;;;;;7.30;3.38;;;;;;;;;;5039690;28;20098;-63
2023/08/12 00:32:16;;;;;;;8.20;3.67;;;;;;;;;;5038978;28;20032;-63
2023/08/12 00:34:44;;;;;;;6.30;3.38;;;;;;;;;;5039548;28;20033;-63
2023/08/12 00:37:10;;;;;;;6.28;3.00;;;;;;;;;;5040397;28;20060;-63
2023/08/12 00:39:37;;;;;;;7.03;2.78;;;;;;;;;;5039887;28;20036;-63
2023/08/12 00:42:03;;;;;;;5.97;2.72;;;;;;;;;;5040330;28;20043;-63
2023/08/12 00:44:29;;;;;;;8.77;3.67;;;;;;;;;;5039461;28;20065;-63
2023/08/12 00:46:55;;;;;;;6.22;3.05;;;;;;;;;;5033230;28;20037;-63
2023/08/12 00:49:21;;;;;;;8.07;3.05;;;;;;;;;;5041255;28;20112;-63
2023/08/12 00:51:48;;;;;;;7.10;2.60;;;;;;;;;;5039822;28;20066;-68
2023/08/12 00:54:16;;;;;;;7.05;2.63;;;;;;;;;;5041094;28;20051;-68
2023/08/12 00:56:42;;;;;;;5.32;2.28;;;;;;;;;;5032891;28;20033;-68
2023/08/12 00:59:09;;;;;;;7.50;2.70;;;;;;;;;;5040693;28;20143;-68
2023/08/12 01:01:36;;;;;;;6.57;2.60;;;;;;;;;;5032082;28;21866;-68
2023/08/12 01:04:02;;;;;;;7.80;2.35;;;;;;;;;;5040285;28;20040;-68
2023/08/12 01:06:31;;;;;;;7.05;2.67;;;;;;;;;;5032956;28;20025;-69
2023/08/12 01:08:57;;;;;;;5.70;2.50;;;;;;;;;;5039220;28;21272;-68
2023/08/12 01:11:44;;;;;;;6.35;2.55;;;;;;;;;;5032932;28;20048;-68
2023/08/12 01:14:32;;;;;;;4.93;2.78;;;;;;;;;;5021477;28;20045;-68
2023/08/12 01:17:00;;;;;;;8.45;3.08;;;;;;;;;;5025788;28;20506;-69
2023/08/12 01:19:36;;;;;;;7.20;3.03;;;;;;;;;;5039882;28;21061;-68
2023/08/12 01:22:03;;;;;;;6.05;2.75;;;;;;;;;;5039732;28;20058;-68
2023/08/12 01:24:35;;;;;;;6.05;2.50;;;;;;;;;;5039044;28;20254;-68
2023/08/12 01:27:01;;;;;;;8.07;2.35;;;;;;;;;;5039006;28;20391;-68
2023/08/12 01:29:27;;;;;;;7.45;2.67;;;;;;;;;;5039584;28;20387;-68
2023/08/12 01:31:58;;;;;;;6.00;2.28;;;;;;;;;;5039262;28;20033;-68
2023/08/12 01:34:45;;;;;;;6.85;2.65;;;;;;;;;;5040056;28;20035;-68
2023/08/12 01:37:14;;;;;;;8.20;3.05;;;;;;;;;;5039071;28;20030;-68
2023/08/12 01:39:43;;;;;;;6.25;3.05;;;;;;;;;;5038839;28;20032;-69
2023/08/12 01:42:09;;;;;;;7.60;2.75;;;;;;;;;;5031663;28;20070;-69
2023/08/12 01:44:35;;;;;;;7.60;2.78;;;;;;;;;;5039689;28;20918;-68
2023/08/12 01:47:01;;;;;;;6.75;2.88;;;;;;;;;;5031732;28;20087;-68
2023/08/12 01:49:27;;;;;;;7.72;3.40;;;;;;;;;;5034498;28;20030;-68
2023/08/12 01:51:54;;;;;;;8.35;3.47;;;;;;;;;;5030501;28;20029;-68
2023/08/12 01:54:20;;;;;;;8.07;2.92;;;;;;;;;;5038585;28;20771;-68
2023/08/12 01:56:46;;;;;;;6.93;3.28;;;;;;;;;;5031214;28;20041;-68
2023/08/12 01:59:12;;;;;;;7.55;3.05;;;;;;;;;;5039097;28;20029;-68
2023/08/12 02:01:38;;;;;;;7.95;3.22;;;;;;;;;;5031682;28;20024;-68
2023/08/12 02:04:04;;;;;;;7.40;3.53;;;;;;;;;;5039420;28;20489;-68
2023/08/12 02:06:30;;;;;;;9.30;3.55;;;;;;;;;;5038137;28;20032;-68
2023/08/12 02:08:57;;;;;;;10.95;3.95;;;;;;;;;;5039366;28;20079;-68
2023/08/12 02:11:23;;;;;;;7.18;3.42;;;;;;;;;;5030702;28;20039;-68
2023/08/12 02:13:49;;;;;;;11.95;4.60;;;;;;;;;;5038115;28;20140;-68
2023/08/12 02:16:15;;;;;;;8.98;3.65;;;;;;;;;;5038515;28;20233;-68
2023/08/12 02:18:41;;;;;;;9.80;4.60;;;;;;;;;;5036695;28;20571;-68
2023/08/12 02:21:07;;;;;;;7.78;4.05;;;;;;;;;;5038689;28;20840;-68
2023/08/12 02:23:33;;;;;;;6.95;3.97;;;;;;;;;;5038543;28;20257;-68
2023/08/12 02:26:00;;;;;;;8.18;4.78;;;;;;;;;;5030633;28;20072;-68
2023/08/12 02:28:26;;;;;;;7.50;4.35;;;;;;;;;;5037497;28;20127;-69
2023/08/12 02:30:52;;;;;;;10.20;4.90;;;;;;;;;;5038016;28;20028;-68
2023/08/12 02:33:18;;;;;;;8.52;4.93;;;;;;;;;;5037851;28;20036;-68
2023/08/12 02:35:46;;;;;;;10.88;5.20;;;;;;;;;;5037327;28;20102;-68
2023/08/12 02:38:12;;;;;;;8.55;4.82;;;;;;;;;;5037924;28;20805;-68
2023/08/12 02:40:38;;;;;;;7.40;4.80;;;;;;;;;;5036969;28;20041;-68
2023/08/12 02:43:04;;;;;;;8.70;4.93;;;;;;;;;;5037701;28;20490;-68
2023/08/12 02:45:30;;;;;;;9.38;5.07;;;;;;;;;;5037221;28;20029;-68
2023/08/12 02:47:59;;;;;;;7.40;4.82;;;;;;;;;;5037752;28;20059;-68
2023/08/12 02:50:25;;;;;;;8.65;4.47;;;;;;;;;;5038037;28;20107;-68
2023/08/12 02:52:51;;;;;;;9.68;4.95;;;;;;;;;;5037373;28;20237;-68
2023/08/12 02:55:17;;;;;;;9.35;4.97;;;;;;;;;;5038222;28;20161;-68
2023/08/12 02:57:43;;;;;;;9.63;5.25;;;;;;;;;;5038212;28;20068;-68
2023/08/12 03:00:10;;;;;;;9.38;4.88;;;;;;;;;;5039130;28;20037;-68
2023/08/12 03:02:36;;;;;;;10.18;5.55;;;;;;;;;;5038165;28;20121;-68
2023/08/12 03:05:03;;;;;;;8.65;4.95;;;;;;;;;;5038286;28;20032;-68
2023/08/12 03:07:29;;;;;;;8.45;5.47;;;;;;;;;;5038029;28;20025;-68
2023/08/12 03:09:55;;;;;;;7.88;4.97;;;;;;;;;;5037181;28;20122;-68
2023/08/12 03:12:21;;;;;;;8.63;5.72;;;;;;;;;;5038743;28;20799;-69
2023/08/12 03:14:47;;;;;;;10.05;5.60;;;;;;;;;;5037895;28;20636;-69
2023/08/12 03:17:13;;;;;;;8.82;5.18;;;;;;;;;;5038078;28;20116;-69
2023/08/12 03:19:39;;;;;;;9.55;5.20;;;;;;;;;;5030209;28;20119;-68
2023/08/12 03:22:05;;;;;;;10.30;5.13;;;;;;;;;;5038022;28;20123;-69
2023/08/12 03:24:31;;;;;;;9.98;5.43;;;;;;;;;;5037981;28;20037;-68
2023/08/12 03:26:57;;;;;;;10.30;6.07;;;;;;;;;;5036761;28;20044;-68
2023/08/12 03:29:23;;;;;;;11.02;6.18;;;;;;;;;;5039268;28;20033;-67
2023/08/12 03:31:49;;;;;;;9.70;5.72;;;;;;;;;;5041999;28;20032;-68
2023/08/12 03:34:15;;;;;;;10.20;6.18;;;;;;;;;;5041794;28;20044;-68
2023/08/12 03:36:41;;;;;;;9.88;6.10;;;;;;;;;;5033409;28;20064;-68
2023/08/12 03:39:07;;;;;;;11.43;6.13;;;;;;;;;;5040073;28;20139;-68
2023/08/12 03:41:34;;;;;;;9.45;5.72;;;;;;;;;;5040952;28;20652;-68
2023/08/12 03:44:00;;;;;;;10.32;5.82;;;;;;;;;;5041276;28;20044;-68
2023/08/12 03:46:26;;;;;;;11.18;6.60;;;;;;;;;;5034434;28;20479;-68
2023/08/12 03:48:52;;;;;;;11.00;6.47;;;;;;;;;;5039810;28;20041;-68
2023/08/12 03:51:18;;;;;;;9.93;5.78;;;;;;;;;;5034019;28;20029;-68
2023/08/12 03:53:44;;;;;;;12.15;6.70;;;;;;;;;;5039250;28;20121;-68
2023/08/12 03:56:14;;;;;;;11.32;6.53;;;;;;;;;;5033086;28;20119;-68
2023/08/12 03:58:40;;;;;;;10.55;6.70;;;;;;;;;;5040736;28;20060;-68
2023/08/12 04:01:06;;;;;;;11.90;6.32;;;;;;;;;;5033191;28;20087;-68
2023/08/12 04:03:32;;;;;;;12.75;6.05;;;;;;;;;;5040386;28;20037;-68
2023/08/12 04:05:58;;;;;;;12.45;7.10;;;;;;;;;;5033425;28;20029;-68
2023/08/12 04:08:24;;;;;;;10.75;6.38;;;;;;;;;;5040014;28;20059;-68
2023/08/12 04:10:51;;;;;;;12.63;7.40;;;;;;;;;;5033473;28;20053;-68
2023/08/12 04:13:18;;;;;;;12.02;7.10;;;;;;;;;;5040287;28;20057;-68
2023/08/12 04:15:48;;;;;;;15.15;7.57;;;;;;;;;;5034323;28;20028;-68
2023/08/12 04:18:14;;;;;;;12.90;7.55;;;;;;;;;;5040920;28;21016;-68
2023/08/12 04:20:40;;;;;;;13.48;7.95;;;;;;;;;;5033113;28;20127;-68
2023/08/12 04:23:06;;;;;;;10.93;7.32;;;;;;;;;;5040452;28;20157;-68
2023/08/12 04:25:32;;;;;;;15.00;8.23;;;;;;;;;;5034944;28;20032;-68
2023/08/12 04:27:58;;;;;;;13.05;8.02;;;;;;;;;;5031950;28;20106;-68
2023/08/12 04:30:26;;;;;;;11.48;7.13;;;;;;;;;;5040292;28;20983;-68
2023/08/12 04:32:52;;;;;;;12.05;7.55;;;;;;;;;;5041413;28;20130;-68
2023/08/12 04:35:18;;;;;;;13.50;8.10;;;;;;;;;;5039872;28;20977;-68
2023/08/12 04:37:44;;;;;;;13.43;8.43;;;;;;;;;;5039820;28;20139;-68
2023/08/12 04:40:11;;;;;;;13.63;8.48;;;;;;;;;;5037179;28;20148;-68
2023/08/12 04:42:37;;;;;;;11.73;7.40;;;;;;;;;;5032543;28;20789;-68
2023/08/12 04:45:03;;;;;;;12.27;7.72;;;;;;;;;;5039733;28;20283;-68
2023/08/12 04:47:29;;;;;;;14.68;8.10;;;;;;;;;;5039464;28;20047;-69
2023/08/12 04:49:55;;;;;;;13.35;8.07;;;;;;;;;;5038042;28;20035;-68
2023/08/12 04:52:21;;;;;;;13.30;8.43;;;;;;;;;;5034583;28;20028;-69
2023/08/12 04:54:47;;;;;;;12.10;7.32;;;;;;;;;;5039446;28;20064;-69
2023/08/12 04:57:13;;;;;;;12.75;7.82;;;;;;;;;;5034118;28;20033;-68
2023/08/12 04:59:40;;;;;;;12.98;7.80;;;;;;;;;;5040683;28;20047;-69
2023/08/12 05:02:06;;;;;;;11.43;7.03;;;;;;;;;;5038762;28;20047;-68
2023/08/12 05:04:32;;;;;;;11.45;6.65;;;;;;;;;;5039526;28;20037;-68
2023/08/12 05:06:58;;;;;;;12.52;7.00;;;;;;;;;;5032590;28;20063;-68
2023/08/12 05:09:24;;;;;;;11.38;7.32;;;;;;;;;;5039736;28;20618;-68
2023/08/12 05:11:50;;;;;;;15.90;8.40;;;;;;;;;;5039527;28;20687;-68
2023/08/12 05:14:16;;;;;;;15.13;8.10;;;;;;;;;;5039237;28;20150;-68
2023/08/12 05:16:42;;;;;;;13.80;7.60;;;;;;;;;;5031704;28;20138;-68
2023/08/12 05:19:08;;;;;;;13.43;7.78;;;;;;;;;;5039370;28;20095;-68
2023/08/12 05:21:34;;;;;;;12.65;7.15;;;;;;;;;;5032656;28;20427;-68
2023/08/12 05:24:00;;;;;;;11.05;7.60;;;;;;;;;;5037187;28;20510;-69
2023/08/12 05:26:26;;;;;;;11.75;6.88;;;;;;;;;;5039580;28;21783;-68
2023/08/12 05:28:53;;;;;;;12.30;7.55;;;;;;;;;;5038970;28;20032;-68
2023/08/12 05:31:19;;;;;;;11.55;6.72;;;;;;;;;;5039477;28;20119;-68
2023/08/12 05:33:45;;;;;;;11.20;6.75;;;;;;;;;;5040062;28;20185;-68
2023/08/12 05:36:11;;;;;;;12.75;7.38;;;;;;;;;;5030601;28;20056;-68
2023/08/12 05:38:37;;;;;;;12.13;7.90;;;;;;;;;;5039178;28;20039;-68
2023/08/12 05:41:07;;;;;;;12.63;7.28;;;;;;;;;;5031753;28;20047;-68
2023/08/12 05:43:33;;;;;;;15.70;7.45;;;;;;;;;;5039475;28;20407;-68
2023/08/12 05:45:59;;;;;;;11.18;7.20;;;;;;;;;;5032043;28;20029;-68
2023/08/12 05:48:25;;;;;;;12.75;7.00;;;;;;;;;;5039313;28;20033;-68
2023/08/12 05:50:51;;;;;;;12.70;7.40;;;;;;;;;;5031379;28;20044;-68
2023/08/12 05:53:17;;;;;;;13.90;7.18;;;;;;;;;;5032347;28;20040;-68
2023/08/12 05:55:43;;;;;;;10.30;6.78;;;;;;;;;;5032327;28;20148;-68
2023/08/12 05:58:09;;;;;;;14.20;7.40;;;;;;;;;;5031612;28;20032;-68
2023/08/12 06:00:35;;;;;;;18.73;8.00;;;;;;;;;;5038732;28;20036;-68
2023/08/12 06:03:01;;;;;;;15.15;8.30;;;;;;;;;;5039522;28;20033;-68
2023/08/12 06:05:27;;;;;;;12.48;7.93;;;;;;;;;;5033643;28;20029;-68
2023/08/12 06:07:53;;;;;;;15.70;7.97;;;;;;;;;;5037403;28;20071;-68
2023/08/12 06:10:19;;;;;;;11.98;7.18;;;;;;;;;;5033533;28;20159;-68
2023/08/12 06:12:46;;;;;;;10.25;7.20;;;;;;;;;;5035321;28;20079;-68
2023/08/12 06:15:12;;;;;;;14.32;7.53;;;;;;;;;;5034710;28;20042;-68
2023/08/12 06:17:38;;;;;;;15.85;7.90;;;;;;;;;;5034644;28;20029;-68
2023/08/12 06:20:04;;;;;;;18.38;8.35;;;;;;;;;;5039442;28;20028;-68
2023/08/12 06:22:30;;;;;;;14.02;7.72;;;;;;;;;;5037673;28;20041;-68
2023/08/12 06:24:56;;;;;;;14.95;7.85;;;;;;;;;;5038227;28;20036;-69
2023/08/12 06:27:22;;;;;;;13.02;8.30;;;;;;;;;;5030298;28;20079;-69
2023/08/12 06:29:48;;;;;;;13.05;8.32;;;;;;;;;;5039255;28;20016;-69
2023/08/12 06:32:14;;;;;;;11.77;7.72;;;;;;;;;;5001139;28;20036;-68
2023/08/12 06:34:41;;;;;;;11.25;7.75;;;;;;;;;;5034303;28;20115;-68
2023/08/12 06:37:07;;;;;;;12.80;8.05;;;;;;;;;;5037557;28;20051;-68
2023/08/12 06:39:36;;;;;;;13.55;7.53;;;;;;;;;;5038555;28;20048;-69
2023/08/12 06:42:03;;;;;;;13.82;8.07;;;;;;;;;;5038683;28;20028;-68
2023/08/12 06:44:29;;;;;;;15.32;8.88;;;;;;;;;;5037964;28;21790;-68
2023/08/12 06:46:55;;;;;;;13.43;7.65;;;;;;;;;;5036919;28;20051;-68
2023/08/12 06:49:21;;;;;;;13.68;8.23;;;;;;;;;;5036778;28;20092;-68
2023/08/12 06:51:47;;;;;;;17.52;8.77;;;;;;;;;;5037147;28;20084;-68
2023/08/12 06:54:13;;;;;;;14.68;8.98;;;;;;;;;;5037840;28;20300;-68
2023/08/12 06:56:39;;;;;;;12.43;8.95;;;;;;;;;;5037250;28;20032;-68
2023/08/12 06:59:05;;;;;;;18.05;9.35;;;;;;;;;;5037446;28;20075;-68
2023/08/12 07:01:31;;;;;;;13.55;8.48;;;;;;;;;;5036593;28;20037;-68
2023/08/12 07:03:57;;;;;;;14.15;9.40;;;;;;;;;;5039173;28;20044;-68
2023/08/12 07:06:23;;;;;;;16.95;9.60;;;;;;;;;;5044629;28;20689;-68
2023/08/12 07:08:49;;;;;;;12.30;9.32;;;;;;;;;;5044607;28;20894;-69
2023/08/12 07:11:15;;;;;;;17.15;10.13;;;;;;;;;;5044634;28;20114;-68
2023/08/12 07:13:42;;;;;;;18.30;8.60;;;;;;;;;;5044058;28;20456;-63
2023/08/12 07:16:09;;;;;;;16.10;9.00;;;;;;;;;;5044892;28;20033;-63
2023/08/12 07:18:35;;;;;;;18.05;9.85;;;;;;;;;;5043991;28;20072;-63
2023/08/12 07:21:01;;;;;;;16.40;9.10;;;;;;;;;;5045059;28;20032;-63
2023/08/12 07:23:27;;;;;;;14.88;10.25;;;;;;;;;;5044357;28;20078;-63
2023/08/12 07:25:53;;;;;;;19.52;10.05;;;;;;;;;;5044440;28;20503;-63
2023/08/12 07:28:19;;;;;;;16.88;10.02;;;;;;;;;;5044801;28;20028;-63
2023/08/12 07:30:45;;;;;;;15.77;9.70;;;;;;;;;;5042702;28;20652;-63
2023/08/12 07:33:11;;;;;;;18.08;10.18;;;;;;;;;;5043747;28;20036;-63
2023/08/12 07:35:37;;;;;;;16.52;9.85;;;;;;;;;;5044047;28;20037;-63
2023/08/12 07:38:03;;;;;;;22.77;10.40;;;;;;;;;;5045048;28;20032;-63
2023/08/12 07:40:30;;;;;;;18.40;11.25;;;;;;;;;;5044821;28;20452;-63
2023/08/12 07:42:56;;;;;;;15.50;10.13;;;;;;;;;;5044377;28;20044;-63
2023/08/12 07:45:22;;;;;;;17.55;11.18;;;;;;;;;;5044442;28;20032;-63
2023/08/12 07:47:49;;;;;;;18.38;10.93;;;;;;;;;;5044329;28;20029;-63
2023/08/12 07:50:15;;;;;;;20.90;11.38;;;;;;;;;;5044425;28;20048;-63
2023/08/12 07:52:42;;;;;;;17.67;10.90;;;;;;;;;;5044550;28;20025;-63
2023/08/12 07:55:08;;;;;;;17.88;11.82;;;;;;;;;;5043440;28;20537;-63
2023/08/12 07:57:34;;;;;;;20.77;11.68;;;;;;;;;;5044539;28;20105;-63
2023/08/12 08:00:00;;;;;;;21.55;12.43;;;;;;;;;;5044043;28;20427;-63
2023/08/12 08:02:26;;;;;;;22.15;13.05;;;;;;;;;;5044308;28;20071;-63
2023/08/12 08:04:52;;;;;;;21.20;12.85;;;;;;;;;;5043494;28;20032;-68
2023/08/12 08:07:18;;;;;;;20.40;12.40;;;;;;;;;;5037883;28;20036;-68
2023/08/12 08:09:44;;;;;;;17.35;11.95;;;;;;;;;;5043267;28;20028;-68
2023/08/12 08:12:11;;;;;;;18.02;10.73;;;;;;;;;;5043497;28;20036;-68
2023/08/12 08:14:37;;;;;;;21.92;12.63;;;;;;;;;;5043529;28;20036;-68
2023/08/12 08:17:04;;;;;;;17.80;11.70;;;;;;;;;;5031854;28;20053;-68
2023/08/12 08:19:30;;;;;;;25.15;12.45;;;;;;;;;;5035873;28;20068;-68
2023/08/12 08:21:58;;;;;;;18.23;11.63;;;;;;;;;;5032413;28;20691;-68
2023/08/12 08:24:24;;;;;;;15.80;10.93;;;;;;;;;;5040028;28;20040;-68
2023/08/12 08:26:50;;;;;;;18.25;11.07;;;;;;;;;;5032856;28;20036;-68
2023/08/12 08:29:16;;;;;;;17.08;10.82;;;;;;;;;;5040673;28;20029;-68
2023/08/12 08:31:42;;;;;;;18.13;11.95;;;;;;;;;;5033475;28;20114;-68
2023/08/12 08:34:09;;;;;;;18.17;11.18;;;;;;;;;;5040341;28;20044;-68
2023/08/12 08:36:36;;;;;;;18.10;11.20;;;;;;;;;;5033538;28;20128;-68
2023/08/12 08:39:02;;;;;;;19.80;11.57;;;;;;;;;;5040079;28;21169;-68
2023/08/12 08:41:31;;;;;;;17.08;11.38;;;;;;;;;;5034250;28;20075;-68
2023/08/12 08:44:00;;;;;;;16.00;10.82;;;;;;;;;;5039412;28;20050;-68
2023/08/12 08:46:26;;;;;;;16.70;12.25;;;;;;;;;;5032871;28;20032;-68
2023/08/12 08:48:52;;;;;;;22.13;12.90;;;;;;;;;;5040661;28;20093;-68
2023/08/12 08:51:18;;;;;;;19.52;12.85;;;;;;;;;;5032530;28;20063;-68
2023/08/12 08:53:44;;;;;;;19.10;13.02;;;;;;;;;;5041017;28;20871;-63
2023/08/12 08:56:13;;;;;;;20.48;13.07;;;;;;;;;;5039114;28;20063;-63
2023/08/12 08:58:39;;;;;;;22.15;14.27;;;;;;;;;;5040229;28;20396;-63
2023/08/12 09:01:06;;;;;;;22.77;14.07;;;;;;;;;;5031759;28;20041;-63
2023/08/12 09:03:32;;;;;;;24.10;14.88;;;;;;;;;;5038715;28;21034;-63
2023/08/12 09:05:59;;;;;;;21.05;14.75;;;;;;;;;;5032164;28;20025;-63
2023/08/12 09:08:26;;;;;;;21.02;14.38;;;;;;;;;;5038136;28;20037;-64
2023/08/12 09:10:53;;;;;;;24.58;15.80;;;;;;;;;;5031799;28;20095;-64
2023/08/12 09:13:19;;;;;;;24.13;15.75;;;;;;;;;;5038945;28;20024;-63
2023/08/12 09:15:45;;;;;;;20.33;14.02;;;;;;;;;;5032912;28;20043;-64
2023/08/12 09:18:11;;;;;;;21.65;15.73;;;;;;;;;;5039710;28;20041;-64
2023/08/12 09:20:37;;;;;;;24.25;16.08;;;;;;;;;;5039479;28;20060;-64
2023/08/12 09:23:03;;;;;;;19.02;15.75;;;;;;;;;;5040313;28;20047;-63
2023/08/12 09:25:30;;;;;;;22.15;15.90;;;;;;;;;;5034212;28;20080;-64
2023/08/12 09:27:59;;;;;;;19.63;15.20;;;;;;;;;;5038264;28;20078;-63
2023/08/12 09:30:26;;;;;;;23.30;15.95;;;;;;;;;;5038748;28;20075;-64
2023/08/12 09:33:00;;;;;;;22.90;17.52;;;;;;;;;;5023481;28;20035;-64
2023/08/12 09:35:32;;;;;;;25.02;16.48;;;;;;;;;;5034624;28;20547;-64
2023/08/12 09:37:58;;;;;;;21.95;16.63;;;;;;;;;;5037819;28;20804;-64
2023/08/12 09:40:25;;;;;;;20.75;15.10;;;;;;;;;;5035411;28;20415;-64
2023/08/12 09:42:51;;;;;;;26.90;16.98;;;;;;;;;;5036672;28;20040;-64
2023/08/12 09:45:20;;;;;;;24.48;17.55;;;;;;;;;;5035972;28;20036;-64
2023/08/12 09:47:46;;;;;;;24.42;17.98;;;;;;;;;;5036043;28;20037;-64
2023/08/12 09:50:13;;;;;;;24.55;16.95;;;;;;;;;;5036330;28;20029;-63
2023/08/12 09:52:39;;;;;;;26.48;17.75;;;;;;;;;;5036498;28;20028;-64
2023/08/12 09:55:07;;;;;;;23.42;16.70;;;;;;;;;;5036305;28;20043;-64
2023/08/12 09:57:34;;;;;;;26.25;16.38;;;;;;;;;;5020809;28;20025;-64
2023/08/12 10:00:00;;;;;;;24.00;15.73;;;;;;;;;;5037509;28;20117;-64
2023/08/12 10:02:27;;;;;;;30.05;19.20;;;;;;;;;;5039453;28;20021;-64
2023/08/12 10:04:56;;;;;;;20.10;14.98;;;;;;;;;;5039059;28;20067;-64
2023/08/12 10:07:23;;;;;;;24.20;15.40;;;;;;;;;;5038437;28;20025;-64
2023/08/12 10:09:49;;;;;;;22.67;15.38;;;;;;;;;;5038338;28;20036;-64
2023/08/12 10:12:16;;;;;;;20.90;13.15;;;;;;;;;;5031070;28;20101;-64
2023/08/12 10:14:42;;;;;;;17.05;13.20;;;;;;;;;;5039387;28;20037;-64
2023/08/12 10:17:09;;;;;;;18.35;13.60;;;;;;;;;;5038630;28;20086;-64
2023/08/12 10:19:36;;;;;;;17.90;13.40;;;;;;;;;;5038827;28;20047;-64
2023/08/12 10:22:03;;;;;;;17.92;12.75;;;;;;;;;;5031862;28;21013;-64
2023/08/12 10:24:30;;;;;;;16.67;12.00;;;;;;;;;;5038095;28;20072;-64
2023/08/12 10:26:56;;;;;;;27.33;14.10;;;;;;;;;;5038073;28;20932;-64
2023/08/12 10:29:25;;;;;;;26.40;14.43;;;;;;;;;;5038602;28;20036;-64
2023/08/12 10:31:52;;;;;;;26.75;16.33;;;;;;;;;;5038826;28;20081;-64
2023/08/12 10:34:27;;;;;;;19.40;13.07;;;;;;;;;;5038865;28;20033;-64
2023/08/12 10:36:57;;;;;;;23.50;14.30;;;;;;;;;;5038240;28;20040;-64
2023/08/12 10:39:29;;;;;;;19.10;13.50;;;;;;;;;;5037610;28;20735;-65
2023/08/12 10:41:56;;;;;;;25.42;15.68;;;;;;;;;;5038360;28;20037;-64
2023/08/12 10:44:23;;;;;;;26.27;15.23;;;;;;;;;;5038393;28;20028;-64
2023/08/12 10:46:53;;;;;;;17.77;11.60;;;;;;;;;;5038025;28;20033;-64
2023/08/12 10:49:21;;;;;;;15.00;10.00;;;;;;;;;;5038297;28;20037;-64
2023/08/12 10:51:48;;;;;;;15.95;10.35;;;;;;;;;;5038266;28;20036;-64
2023/08/12 10:54:18;;;;;;;12.88;8.60;;;;;;;;;;5038370;28;20036;-65
2023/08/12 10:57:03;;;;;;;9.73;5.43;;;;;;;;;;5038700;28;20041;-64
2023/08/12 10:59:47;;;;;;;9.55;4.80;;;;;;;;;;5038246;28;21111;-70
2023/08/12 11:02:18;;;;;;;6.60;4.03;;;;;;;;;;5038176;28;20037;-70
2023/08/12 11:04:44;;;;;;;7.07;3.45;;;;;;;;;;5037356;28;20028;-69
2023/08/12 11:07:16;;;;;;;7.97;3.47;;;;;;;;;;5037960;28;20851;-70
2023/08/12 11:09:42;;;;;;;6.18;3.00;;;;;;;;;;5036871;28;20027;-70
2023/08/12 11:12:10;;;;;;;5.35;2.83;;;;;;;;;;5017985;28;20386;-70
2023/08/12 11:15:09;;;;;;;7.18;3.30;;;;;;;;;;5036741;28;20037;-70
2023/08/12 11:17:36;;;;;;;8.05;3.85;;;;;;;;;;4991988;28;20073;-70
2023/08/12 11:20:06;;;;;;;7.90;3.20;;;;;;;;;;5037064;28;20040;-70
2023/08/12 11:22:34;;;;;;;5.82;3.35;;;;;;;;;;5037029;28;20060;-70
2023/08/12 11:25:01;;;;;;;6.90;3.50;;;;;;;;;;5037819;28;20033;-70
2023/08/12 11:27:27;;;;;;;7.65;3.58;;;;;;;;;;5034977;28;20443;-71
2023/08/12 11:29:53;;;;;;;7.85;4.43;;;;;;;;;;5037349;28;20948;-70
2023/08/12 11:32:20;;;;;;;8.43;4.22;;;;;;;;;;5038134;28;20116;-70
2023/08/12 11:34:46;;;;;;;6.50;4.32;;;;;;;;;;5038345;28;20411;-71
2023/08/12 11:37:12;;;;;;;6.45;3.38;;;;;;;;;;5037724;28;20037;-70
2023/08/12 11:39:39;;;;;;;13.73;3.63;;;;;;;;;;5037442;28;20040;-70
2023/08/12 11:42:05;;;;;;;10.82;3.38;;;;;;;;;;5037795;28;20044;-71
2023/08/12 11:44:31;;;;;;;9.98;2.78;;;;;;;;;;5037299;28;20037;-71
2023/08/12 11:46:57;;;;;;;12.45;3.13;;;;;;;;;;5037546;28;20130;-71
2023/08/12 11:49:23;;;;;;;8.63;3.35;;;;;;;;;;5037913;28;21166;-69
2023/08/12 11:51:50;;;;;;;5.85;2.92;;;;;;;;;;5040104;28;20037;-69
2023/08/12 11:54:16;;;;;;;6.70;2.53;;;;;;;;;;5041854;28;20036;-69
2023/08/12 11:56:42;;;;;;;6.30;2.53;;;;;;;;;;5034011;28;20266;-69
2023/08/12 11:59:08;;;;;;;8.50;3.17;;;;;;;;;;5040373;28;20056;-68
2023/08/12 12:01:35;;;;;;;9.63;3.13;;;;;;;;;;5040965;28;20052;-69
2023/08/12 12:04:01;;;;;;;5.45;2.20;;;;;;;;;;5041149;28;20033;-69
2023/08/12 12:06:31;;;;;;;7.63;2.45;;;;;;;;;;5033816;28;20032;-69
2023/08/12 12:09:04;;;;;;;7.07;2.30;;;;;;;;;;5040569;28;20092;-69
2023/08/12 12:11:30;;;;;;;7.45;2.47;;;;;;;;;;5033687;28;20705;-69
2023/08/12 12:13:56;;;;;;;7.32;2.15;;;;;;;;;;5040638;28;20099;-69
2023/08/12 12:16:22;;;;;;;9.20;2.80;;;;;;;;;;5023991;28;20387;-69
2023/08/12 12:18:48;;;;;;;7.35;2.20;;;;;;;;;;5041339;28;20033;-69
2023/08/12 12:21:21;;;;;;;7.28;2.60;;;;;;;;;;5033890;28;20039;-69
2023/08/12 12:23:47;;;;;;;;;;;;;;;;;;5040541;28;20495;-69
2023/08/12 12:26:13;;;;;;;4.53;1.90;;;;;;;;;;5040991;28;19924;-69
2023/08/12 12:28:39;;;;;;;8.40;2.53;;;;;;;;;;5040690;28;20190;-69
2023/08/12 12:31:07;;;;;;;5.63;2.13;;;;;;;;;;5031021;28;20510;-69
2023/08/12 12:33:33;;;;;;;12.75;2.85;;;;;;;;;;5036382;28;20028;-69
2023/08/12 12:36:00;;;;;;;6.53;2.28;;;;;;;;;;5031507;28;20055;-69
2023/08/12 12:38:26;;;;;;;7.53;2.47;;;;;;;;;;5020475;28;20403;-70
2023/08/12 12:40:52;;;;;;;10.63;3.13;;;;;;;;;;5030349;28;20427;-69
2023/08/12 12:43:18;;;;;;;10.52;2.95;;;;;;;;;;5034252;28;21418;-69
2023/08/12 12:45:44;;;;;;;8.43;2.60;;;;;;;;;;5033223;28;20033;-69
2023/08/12 12:48:10;;;;;;;8.00;2.20;;;;;;;;;;5040288;28;20040;-70
2023/08/12 12:50:37;;;;;;;9.40;2.22;;;;;;;;;;5033470;28;20048;-69
2023/08/12 12:53:03;;;;;;;7.78;2.20;;;;;;;;;;5037826;28;20120;-70
2023/08/12 12:55:29;;;;;;;7.95;2.70;;;;;;;;;;5034735;28;20117;-69
2023/08/12 12:57:55;;;;;;;7.93;2.47;;;;;;;;;;5031225;28;20083;-70
2023/08/12 13:00:21;;;;;;;8.95;2.40;;;;;;;;;;5040088;28;20040;-70
2023/08/12 13:02:47;;;;;;;9.57;2.60;;;;;;;;;;5031729;28;20078;-69
2023/08/12 13:05:14;;;;;;;9.00;2.80;;;;;;;;;;5040140;28;20044;-70
2023/08/12 13:07:40;;;;;;;8.80;2.60;;;;;;;;;;5032349;28;20724;-70
2023/08/12 13:10:07;;;;;;;9.38;2.50;;;;;;;;;;5020010;28;20184;-70
2023/08/12 13:12:33;;;;;;;8.63;2.30;;;;;;;;;;5027938;28;20032;-69
2023/08/12 13:14:59;;;;;;;8.40;2.53;;;;;;;;;;5040228;28;20032;-70
2023/08/12 13:17:25;;;;;;;11.93;2.97;;;;;;;;;;5031838;28;20040;-70
2023/08/12 13:19:51;;;;;;;11.70;3.35;;;;;;;;;;5037752;28;20044;-69
2023/08/12 13:22:20;;;;;;;11.43;3.05;;;;;;;;;;5023989;28;20071;-70
2023/08/12 13:24:46;;;;;;;10.05;3.58;;;;;;;;;;5038336;28;20162;-70
2023/08/12 13:27:13;;;;;;;12.68;3.35;;;;;;;;;;5031751;28;20107;-70
2023/08/12 13:29:39;;;;;;;11.43;3.70;;;;;;;;;;5037827;28;20043;-70
2023/08/12 13:32:05;;;;;;;8.48;3.03;;;;;;;;;;5032508;28;20036;-70
2023/08/12 13:34:32;;;;;;;9.50;3.35;;;;;;;;;;5039347;28;20041;-70
2023/08/12 13:36:58;;;;;;;9.60;3.47;;;;;;;;;;5031807;28;20567;-70
2023/08/12 13:39:24;;;;;;;10.00;3.17;;;;;;;;;;5039611;28;20211;-70
2023/08/12 13:41:50;;;;;;;11.88;3.60;;;;;;;;;;5025391;28;20040;-70
2023/08/12 13:44:16;;;;;;;9.77;3.03;;;;;;;;;;5038832;28;20117;-69
2023/08/12 13:46:42;;;;;;;8.85;2.92;;;;;;;;;;5024671;28;20036;-69
2023/08/12 13:49:08;;;;;;;12.32;3.38;;;;;;;;;;5039501;28;20825;-69
2023/08/12 13:51:34;;;;;;;10.93;3.65;;;;;;;;;;5033405;28;20485;-69
2023/08/12 13:54:00;;;;;;;12.77;3.60;;;;;;;;;;5038317;28;20074;-69
2023/08/12 13:56:26;;;;;;;12.35;3.58;;;;;;;;;;5027713;28;20037;-70
2023/08/12 13:58:52;;;;;;;13.77;3.05;;;;;;;;;;5036437;28;20039;-70
2023/08/12 14:01:18;;;;;;;11.68;3.67;;;;;;;;;;5028017;28;20025;-69
2023/08/12 14:03:44;;;;;;;9.13;2.47;;;;;;;;;;5035903;28;20040;-69
2023/08/12 14:06:10;;;;;;;9.43;2.28;;;;;;;;;;5028919;28;20164;-70
2023/08/12 14:08:37;;;;;;;6.10;1.75;;;;;;;;;;5005071;28;20025;-70
2023/08/12 14:11:03;;;;;;;9.55;2.13;;;;;;;;;;5035299;28;20183;-70
2023/08/12 14:13:29;;;;;;;13.23;2.70;;;;;;;;;;5019710;28;20542;-70
2023/08/12 14:15:55;;;;;;;8.38;2.30;;;;;;;;;;5035157;28;20514;-70
2023/08/12 14:18:21;;;;;;;8.77;2.28;;;;;;;;;;5032733;28;20443;-69
2023/08/12 14:20:47;;;;;;;10.93;2.17;;;;;;;;;;5037751;28;20175;-70
2023/08/12 14:23:13;;;;;;;10.77;2.53;;;;;;;;;;5032191;28;20190;-70
2023/08/12 14:25:39;;;;;;;8.23;1.98;;;;;;;;;;5031980;28;20510;-70
2023/08/12 14:28:06;;;;;;;8.27;2.17;;;;;;;;;;5030927;28;20493;-69
2023/08/12 14:30:32;;;;;;;9.02;1.98;;;;;;;;;;5032698;28;20056;-70